Pittsburgh, Pennsylvania
Current Conditions -  °F | °C
As of 5:53 AM on Friday 24 Oct 2014 (Local Time) from KAGC Reporting Station
Clear Clear  
Wind Chill:   Ceiling: Unl
Heat Index:   Visibility: 10mi
Dew Point:   Wind: 6mph
Humidity: 76%   Direction: 280°W
Pressure: 30.08"   Gusts: NA
Location:  40.44°N, 80°W
Report Text: KAGC 240953Z 28005KT 10SM CLR 06/02 A3008 RMK AO2 SLP194 T00610022
Loading
Personal Weather Stations






























Interactive Weather Map
Tropical Storm Tracking
New forecast layout! Learn more

10-Day Weather Forecast

Advertisements
Track Severe Weather on mobile